Omskiy-107 — UBWE3 — position and weather

sailwx.info

Track history (hours):
 
Tides and Currents Weather Stations Pressure Air Temp Water Temp Dewpoint Dewpoint Depression Visibility Wind Speed Wind Dir Waves Ship Positions

Omskiy-107

Last reported at 2015-Jul-13 15:33 UTC. Time now 2015-Jul-29 18:00 UTC.
Position N 41°25' E 029°31'.
Warning: this ship's position is 16 days out of date.

Length 108 m; draft 2.8 m.

Type: Cargo ship. MMSI: 273343220.

Date/timePositionNaut miles runAvg speedWind from/ knotsBaromVisibWave heightAir tempDewpointWater temp
2015-Jul-13 15:33N 41°25' E 029°31'11 8.6
2015-Jul-13 14:13N 41°19' E 029°18'  
2015-Jul-08 08:11N 40°25' E 029°05'1 0.8
2015-Jul-08 07:29N 40°25' E 029°04'1 0.2
2015-Jul-08 02:11N 40°26' E 029°05'228 5.2
2015-Jul-06 06:33N 37°32' E 025°56'356 8.2
2015-Jul-04 11:12N 34°38' E 032°20'6 8.7
2015-Jul-04 10:33N 34°34' E 032°25'9 8.6
2015-Jul-04 09:28N 34°28' E 032°33'8 8.7
2015-Jul-04 08:31N 34°22' E 032°40'37 8.9
2015-Jul-04 04:22N 33°56' E 033°11'8 8.9
2015-Jul-04 03:25N 33°50' E 033°19'8 9.0
2015-Jul-04 02:31N 33°44' E 033°26'  
Track history (hours):
 
Tides and Currents Weather Stations Pressure Air Temp Water Temp Dewpoint Dewpoint Depression Visibility Wind Speed Wind Dir Waves Ship Positions

Omskiy-107

Last reported at 2015-Jul-13 15:33 UTC. Time now 2015-Jul-29 18:00 UTC.
Position N 41°25' E 029°31'.
Warning: this ship's position is 16 days out of date.

Length 108 m; draft 2.8 m.

Type: Cargo ship. MMSI: 273343220.

Date/timePositionNaut miles runAvg speedWind from/ knotsBaromVisibWave heightAir tempDewpointWater temp
2015-Jul-13 15:33N 41°25' E 029°31'11 8.6
2015-Jul-13 14:13N 41°19' E 029°18'  
2015-Jul-08 08:11N 40°25' E 029°05'1 0.8
2015-Jul-08 07:29N 40°25' E 029°04'1 0.2
2015-Jul-08 02:11N 40°26' E 029°05'228 5.2
2015-Jul-06 06:33N 37°32' E 025°56'356 8.2
2015-Jul-04 11:12N 34°38' E 032°20'6 8.7
2015-Jul-04 10:33N 34°34' E 032°25'9 8.6
2015-Jul-04 09:28N 34°28' E 032°33'8 8.7
2015-Jul-04 08:31N 34°22' E 032°40'37 8.9
2015-Jul-04 04:22N 33°56' E 033°11'8 8.9
2015-Jul-04 03:25N 33°50' E 033°19'8 9.0
2015-Jul-04 02:31N 33°44' E 033°26'  

Dump ship's entire track history